createdAt,value
2018-08-20T05:38:49.953Z,85.30
2018-08-20T05:43:47.738Z,84.20
2018-08-20T05:48:45.455Z,81.30
2018-08-20T05:53:43.189Z,80.60
2018-08-20T05:58:40.910Z,79.70
2018-08-20T06:03:38.638Z,77.40
2018-08-20T06:08:36.378Z,77.20
2018-08-20T06:13:34.110Z,76.80
2018-08-20T06:18:31.886Z,77.10
2018-08-20T06:23:29.656Z,76.00
2018-08-20T06:28:28.088Z,75.10
2018-08-20T06:33:25.903Z,75.30
2018-08-20T06:38:23.702Z,75.50
2018-08-20T06:43:33.929Z,74.50
2018-08-20T06:48:31.701Z,74.00
2018-08-20T06:53:35.654Z,71.60
2018-08-20T06:58:33.554Z,71.20
2018-08-20T07:03:31.719Z,71.40
2018-08-20T07:08:29.549Z,69.10
2018-08-20T07:13:51.088Z,71.60
2018-08-20T07:18:48.903Z,71.40
2018-08-20T07:23:46.641Z,68.60
2018-08-20T07:28:44.388Z,68.70
2018-08-20T07:34:01.242Z,67.20
2018-08-20T07:38:58.997Z,64.70
2018-08-20T07:49:21.133Z,61.20
2018-08-20T07:54:18.850Z,59.90
2018-08-20T07:59:16.561Z,59.80
2018-08-20T08:04:14.414Z,59.50
2018-08-20T08:09:12.186Z,59.40
2018-08-20T08:14:09.912Z,59.00
2018-08-20T08:19:07.725Z,58.50
2018-08-20T08:24:05.429Z,58.50
2018-08-20T08:29:03.242Z,58.30
2018-08-20T08:34:00.989Z,58.00
2018-08-20T08:38:58.721Z,58.30
2018-08-20T08:49:19.401Z,57.40
2018-08-20T08:54:17.140Z,56.70
2018-08-20T08:59:14.928Z,56.40
2018-08-20T09:04:12.706Z,56.00
2018-08-20T09:09:10.434Z,55.40
2018-08-20T09:14:08.212Z,55.70
2018-08-20T09:19:05.965Z,55.30
2018-08-20T09:24:03.810Z,54.60
2018-08-20T09:29:01.518Z,52.60
2018-08-20T09:33:59.269Z,52.10
2018-08-20T09:38:57.013Z,51.80
2018-08-20T09:43:54.733Z,51.90
2018-08-20T09:48:52.477Z,51.90
2018-08-20T09:53:50.291Z,50.00
2018-08-20T09:58:48.031Z,49.70
2018-08-20T10:03:46.313Z,48.70
2018-08-20T10:08:44.238Z,48.80
2018-08-20T10:13:41.914Z,48.90
2018-08-20T10:18:39.678Z,47.80
2018-08-20T10:23:37.406Z,46.10
2018-08-20T10:28:35.128Z,46.80
2018-08-20T10:33:32.875Z,47.50
2018-08-20T10:38:30.614Z,48.50
2018-08-20T10:43:28.313Z,46.60
2018-08-20T10:48:26.222Z,45.60
2018-08-20T10:53:24.029Z,46.20
2018-08-20T10:58:21.825Z,46.40
2018-08-20T11:03:19.602Z,44.70
2018-08-20T11:08:17.325Z,45.30
2018-08-20T11:13:15.178Z,44.00
2018-08-20T11:18:13.003Z,44.90
2018-08-20T11:23:10.666Z,43.20
2018-08-20T11:28:08.417Z,42.90
2018-08-20T11:33:07.272Z,42.40
2018-08-20T11:38:05.569Z,41.00
2018-08-20T11:43:03.364Z,41.30
2018-08-20T11:48:01.109Z,40.90
2018-08-20T11:52:58.809Z,40.00
2018-08-20T11:57:56.554Z,39.00
2018-08-20T12:02:54.283Z,40.30
2018-08-20T12:07:52.005Z,40.70
2018-08-20T12:12:49.803Z,39.20
2018-08-20T12:17:47.557Z,38.70
2018-08-20T12:22:57.530Z,38.40
2018-08-20T12:27:55.205Z,39.00
2018-08-20T12:32:52.941Z,37.80
2018-08-20T12:37:50.649Z,38.10
2018-08-20T12:42:48.357Z,37.80
2018-08-20T12:47:46.081Z,37.40
2018-08-20T12:52:43.796Z,37.20
2018-08-20T12:57:41.556Z,36.50
2018-08-20T13:02:39.321Z,35.80
2018-08-20T13:07:37.034Z,34.90
2018-08-20T13:12:34.742Z,35.30
2018-08-20T13:17:32.457Z,35.30
2018-08-20T13:22:30.195Z,35.60
2018-08-20T13:27:27.897Z,36.30
2018-08-20T13:32:25.650Z,35.30
2018-08-20T13:37:23.496Z,34.20
2018-08-20T13:42:21.146Z,34.90
2018-08-20T13:47:18.854Z,34.40
2018-08-20T13:52:16.715Z,35.50
2018-08-20T13:57:14.437Z,34.20
2018-08-20T14:02:12.166Z,35.20
2018-08-20T14:07:09.897Z,35.90
2018-08-20T14:12:07.629Z,35.60
2018-08-20T14:17:05.363Z,35.10
2018-08-20T14:22:03.146Z,36.50
2018-08-20T14:27:00.875Z,34.40
2018-08-20T14:31:58.585Z,34.30
2018-08-20T14:36:56.406Z,33.40
2018-08-20T14:41:54.069Z,33.70
2018-08-20T14:46:51.773Z,33.50
2018-08-20T14:51:49.465Z,32.80
2018-08-20T14:56:47.188Z,33.20
2018-08-20T15:01:44.906Z,33.90
2018-08-20T15:06:57.050Z,34.20
2018-08-20T15:11:55.338Z,35.00
2018-08-20T15:16:53.643Z,34.80
2018-08-20T15:21:51.366Z,35.50
2018-08-20T15:26:49.901Z,36.40
2018-08-20T15:31:47.705Z,38.00
2018-08-20T15:36:45.528Z,37.70
2018-08-20T15:41:43.249Z,37.40
2018-08-20T15:46:40.977Z,37.80
2018-08-20T15:51:38.702Z,36.90
2018-08-20T15:56:36.406Z,37.60
2018-08-20T16:01:34.135Z,36.60
2018-08-20T16:06:31.873Z,37.70
2018-08-20T16:11:29.625Z,35.70
2018-08-20T16:16:27.326Z,35.40
2018-08-20T16:21:25.029Z,36.10
2018-08-20T16:26:22.749Z,36.60
2018-08-20T16:31:20.517Z,37.30
2018-08-20T16:36:18.277Z,37.60
2018-08-20T16:41:16.057Z,38.20
2018-08-20T16:46:13.801Z,38.90
2018-08-20T16:51:11.737Z,39.00
2018-08-20T16:56:09.464Z,38.80
2018-08-20T17:01:13.153Z,40.80
2018-08-20T17:06:10.851Z,40.70
2018-08-20T17:11:08.721Z,41.30
2018-08-20T17:16:09.222Z,41.60
2018-08-20T17:21:07.032Z,43.30
2018-08-20T17:26:05.226Z,44.90
2018-08-20T17:31:06.454Z,45.40
2018-08-20T17:36:06.884Z,46.10
2018-08-20T17:41:07.178Z,46.70
2018-08-20T18:09:30.045Z,50.40
2018-08-20T18:14:27.802Z,51.10
2018-08-20T18:19:25.624Z,51.30
2018-08-20T18:24:23.297Z,51.60
2018-08-20T18:29:21.149Z,52.50
2018-08-20T18:34:19.007Z,52.90
2018-08-20T18:39:16.890Z,53.10
2018-08-20T18:44:14.678Z,53.60
2018-08-20T18:49:12.446Z,53.90
2018-08-20T18:54:10.206Z,54.60
2018-08-20T18:59:07.921Z,56.00
2018-08-20T19:04:05.718Z,56.20
2018-08-20T19:09:04.210Z,56.60
2018-08-20T19:14:06.510Z,56.90
2018-08-20T19:19:05.109Z,57.20
2018-08-20T19:24:02.833Z,58.00
2018-08-20T19:29:10.506Z,58.60
